OMRK/RKT METAR and TAF weather

Enter ICAO airport designator
Station Type Date Time Source
OMRK METAR 2021/06/24 06:00 UTC NOAA

OMRK 240600Z 20009KT 170V240 CAVOK 43/08 Q1002 A2960


Station Type Date Time Source
OMRK Decoded METAR 2021/06/24 06:00 UTC NOAA

Ras Al Khaimah International Airport, United Arab Emirates (OMRK) 25-37N 055-56E 31M
Jun 24, 2021 - 02:00 AM EDT / 2021.06.24 0600 UTC
Wind: from the SSW (200 degrees) at 10 MPH (9 KT) (direction variable):0
Visibility: greater than 7 mile(s):0
Temperature: 109 F (43 C)
Dew Point: 46 F (8 C)
Relative Humidity: 12%
Pressure (altimeter): 29.6 in. Hg (1002 hPa)
ob: OMRK 240600Z 20009KT 170V240 CAVOK 43/08 Q1002 A2960
cycle: 6

Station Type Date Time Source
OMRK TAF 2021/06/24 06:03 UTC NOAA

TAF OMRK 240500Z 2406/2512 22007KT 8000 NSC
BECMG 2408/2410 34013KT
BECMG 2415/2417 VRB02KT
BECMG 2503/2505 20010KT PROB30 2504/2508 4000 DU
BECMG 2508/2510 33013KT

Example: see airport list